createdAt,value
2022-08-02T00:03:12.839Z,16.60
2022-08-02T00:08:18.188Z,16.40
2022-08-02T00:13:23.730Z,16.60
2022-08-02T00:18:29.387Z,16.50
2022-08-02T00:23:34.618Z,16.60
2022-08-02T00:28:41.557Z,16.40
2022-08-02T00:34:27.024Z,16.50
2022-08-02T00:38:54.852Z,16.30
2022-08-02T00:44:00.110Z,16.20
2022-08-02T00:49:05.805Z,16.40
2022-08-02T00:54:14.757Z,16.50
2022-08-02T00:59:20.550Z,16.60
2022-08-02T01:04:31.269Z,16.60
2022-08-02T01:09:34.161Z,16.60
2022-08-02T01:14:41.082Z,16.70
2022-08-02T01:20:01.297Z,16.70
2022-08-02T01:25:27.353Z,16.60
2022-08-02T01:30:35.489Z,16.60
2022-08-02T01:35:50.598Z,16.80
2022-08-02T01:40:53.467Z,16.70
2022-08-02T01:46:01.017Z,16.70
2022-08-02T01:51:06.042Z,16.30
2022-08-02T01:56:13.496Z,16.20
2022-08-02T02:01:21.196Z,16.30
2022-08-02T02:06:28.191Z,16.20
2022-08-02T02:12:11.560Z,15.90
2022-08-02T02:16:44.259Z,15.90
2022-08-02T02:21:49.198Z,15.80
2022-08-02T02:26:54.401Z,15.80
2022-08-02T02:32:02.509Z,15.80
2022-08-02T02:37:11.010Z,15.70
2022-08-02T02:42:19.735Z,15.50
2022-08-02T02:47:40.571Z,15.40
2022-08-02T02:52:33.449Z,15.30
2022-08-02T02:57:40.229Z,15.30
2022-08-02T03:02:46.709Z,14.90
2022-08-02T03:07:52.302Z,15.20
2022-08-02T03:12:58.649Z,14.80
2022-08-02T03:18:03.867Z,14.90
2022-08-02T03:23:08.826Z,15.00
2022-08-02T03:28:14.090Z,15.00
2022-08-02T03:33:21.327Z,14.90
2022-08-02T03:38:29.202Z,14.70
2022-08-02T03:43:37.283Z,14.60
2022-08-02T03:48:43.364Z,14.60
2022-08-02T03:53:50.727Z,14.60
2022-08-02T03:59:12.760Z,14.90
2022-08-02T04:04:18.351Z,15.10
2022-08-02T04:09:24.424Z,15.00
2022-08-02T04:14:30.365Z,15.30
2022-08-02T04:19:45.534Z,15.60
2022-08-02T04:24:53.529Z,15.60
2022-08-02T04:30:01.420Z,15.70
2022-08-02T04:35:22.968Z,16.00
2022-08-02T04:40:15.691Z,16.10
2022-08-02T04:45:22.909Z,16.00
2022-08-02T04:50:28.804Z,16.20
2022-08-02T04:55:34.974Z,16.20
2022-08-02T05:00:40.966Z,16.60
2022-08-02T05:05:46.125Z,16.90
2022-08-02T05:10:51.887Z,17.00
2022-08-02T05:15:58.839Z,17.30
2022-08-02T05:21:05.399Z,17.40
2022-08-02T05:26:11.505Z,17.60
2022-08-02T05:31:16.666Z,18.00
2022-08-02T05:36:22.732Z,18.00
2022-08-02T05:41:27.753Z,18.40
2022-08-02T05:46:33.809Z,18.70
2022-08-02T05:51:39.715Z,19.10
2022-08-02T05:56:53.798Z,19.30
2022-08-02T06:02:02.986Z,19.20
2022-08-02T06:07:10.727Z,19.10
2022-08-02T06:12:18.730Z,19.20
2022-08-02T06:17:24.651Z,19.70
2022-08-02T06:22:36.022Z,20.10
2022-08-02T06:27:39.817Z,20.60
2022-08-02T06:32:46.196Z,20.70
2022-08-02T06:37:59.005Z,21.00
2022-08-02T06:43:16.216Z,21.30
2022-08-02T06:48:21.320Z,21.20
2022-08-02T06:53:27.230Z,21.50
2022-08-02T06:58:33.204Z,21.70
2022-08-02T07:03:40.821Z,21.60
2022-08-02T07:09:04.917Z,22.10
2022-08-02T07:13:53.782Z,21.80
2022-08-02T07:19:00.576Z,22.20
2022-08-02T07:24:06.673Z,22.50
2022-08-02T07:29:10.856Z,22.70
2022-08-02T07:34:16.641Z,22.60
2022-08-02T07:39:21.975Z,22.70
2022-08-02T07:44:29.137Z,23.20
2022-08-02T07:49:35.315Z,23.90
2022-08-02T07:54:41.371Z,23.50
2022-08-02T07:59:48.094Z,23.60
2022-08-02T08:04:54.283Z,23.80
2022-08-02T08:10:01.482Z,24.40
2022-08-02T08:15:07.228Z,24.10
2022-08-02T08:20:15.896Z,24.50
2022-08-02T08:25:22.202Z,24.10
2022-08-02T08:30:29.025Z,24.90
2022-08-02T08:35:35.227Z,23.10
2022-08-02T08:40:42.182Z,23.90
2022-08-02T08:45:55.985Z,24.90
2022-08-02T08:50:58.349Z,25.30
2022-08-02T08:56:03.810Z,25.40
2022-08-02T09:01:09.374Z,25.70
2022-08-02T09:06:15.083Z,24.80
2022-08-02T09:11:26.437Z,25.70
2022-08-02T09:16:34.439Z,25.70
2022-08-02T09:21:40.145Z,25.90
2022-08-02T09:26:44.872Z,24.90
2022-08-02T09:31:50.865Z,25.30
2022-08-02T09:36:56.331Z,26.00
2022-08-02T09:42:02.994Z,24.30
2022-08-02T09:47:08.594Z,25.10
2022-08-02T09:52:14.440Z,24.60
2022-08-02T09:57:28.839Z,24.30
2022-08-02T10:02:33.782Z,25.30
2022-08-02T10:07:39.495Z,25.30
2022-08-02T10:12:44.881Z,24.70
2022-08-02T10:17:50.579Z,24.70
2022-08-02T10:22:58.516Z,24.90
2022-08-02T10:28:05.763Z,24.70
2022-08-02T10:33:13.114Z,25.20
2022-08-02T10:38:19.920Z,25.60
2022-08-02T10:43:45.450Z,26.00
2022-08-02T10:54:22.289Z,26.40
2022-08-02T10:59:38.667Z,25.70
2022-08-02T11:04:47.042Z,25.70
2022-08-02T11:09:53.035Z,26.10
2022-08-02T11:15:07.835Z,26.20
2022-08-02T11:20:16.624Z,26.30
2022-08-02T11:25:32.097Z,25.90
2022-08-02T11:30:35.808Z,25.40
2022-08-02T11:35:42.534Z,24.90
2022-08-02T11:40:49.889Z,24.90
2022-08-02T11:45:57.232Z,25.60
2022-08-02T11:51:14.760Z,25.30
2022-08-02T11:56:29.476Z,25.20
2022-08-02T12:01:45.425Z,25.30
2022-08-02T12:06:44.919Z,25.60
2022-08-02T12:11:52.305Z,26.40
2022-08-02T12:17:15.130Z,26.80
2022-08-02T12:22:27.465Z,26.50
2022-08-02T12:27:35.870Z,25.70
2022-08-02T12:32:42.293Z,25.60
2022-08-02T12:37:50.069Z,26.10
2022-08-02T12:43:05.062Z,27.00
2022-08-02T12:48:11.497Z,26.10
2022-08-02T12:53:19.553Z,26.70
2022-08-02T12:58:25.578Z,25.40
2022-08-02T13:04:11.902Z,25.70
2022-08-02T13:08:38.974Z,27.00
2022-08-02T13:13:44.569Z,26.00
2022-08-02T13:18:49.757Z,25.70
2022-08-02T13:23:55.482Z,26.80
2022-08-02T13:29:01.810Z,26.70
2022-08-02T13:34:09.243Z,26.80
2022-08-02T13:39:14.647Z,26.80
2022-08-02T13:44:19.973Z,26.70
2022-08-02T13:49:49.657Z,27.20
2022-08-02T13:54:31.850Z,26.80
2022-08-02T13:59:56.871Z,27.10
2022-08-02T14:04:44.906Z,27.10
2022-08-02T14:09:49.106Z,26.00
2022-08-02T14:14:53.910Z,25.70
2022-08-02T14:19:59.218Z,25.60
2022-08-02T14:25:08.893Z,26.30
2022-08-02T14:30:11.729Z,27.00
2022-08-02T14:35:16.957Z,27.20
2022-08-02T14:40:30.749Z,27.70
2022-08-02T14:45:40.366Z,27.70
2022-08-02T14:50:39.507Z,27.50
2022-08-02T14:55:45.009Z,27.80
2022-08-02T15:00:50.309Z,27.50
2022-08-02T15:05:57.600Z,27.70
2022-08-02T15:11:03.069Z,27.70
2022-08-02T15:16:07.193Z,27.70
2022-08-02T15:21:40.314Z,27.60
2022-08-02T15:26:21.200Z,27.30
2022-08-02T15:31:33.313Z,27.60
2022-08-02T15:36:33.281Z,27.70
2022-08-02T15:41:38.660Z,27.30
2022-08-02T15:46:44.346Z,27.40
2022-08-02T15:51:51.118Z,27.00
2022-08-02T15:56:57.098Z,27.30
2022-08-02T16:02:05.186Z,26.90
2022-08-02T16:07:10.389Z,27.00
2022-08-02T16:12:16.465Z,27.20
2022-08-02T16:17:53.797Z,26.90
2022-08-02T16:22:29.961Z,26.60
2022-08-02T16:27:34.855Z,26.40
2022-08-02T16:32:42.143Z,25.80
2022-08-02T16:37:51.605Z,25.70
2022-08-02T16:42:55.992Z,25.80
2022-08-02T16:48:05.512Z,26.00
2022-08-02T16:53:08.069Z,26.00
2022-08-02T16:58:14.536Z,25.90
2022-08-02T17:03:20.926Z,25.50
2022-08-02T17:08:31.718Z,25.10
2022-08-02T17:13:37.725Z,25.10
2022-08-02T17:18:43.031Z,25.10
2022-08-02T17:24:07.719Z,25.10
2022-08-02T17:29:15.430Z,24.70
2022-08-02T17:34:02.489Z,24.50
2022-08-02T17:39:09.091Z,24.20
2022-08-02T17:44:14.970Z,24.20
2022-08-02T17:49:23.681Z,23.50
2022-08-02T17:54:29.683Z,23.30
2022-08-02T17:59:41.637Z,22.90
2022-08-02T18:04:43.618Z,22.70
2022-08-02T18:09:50.729Z,22.60
2022-08-02T18:14:57.937Z,22.50
2022-08-02T18:20:10.116Z,22.20
2022-08-02T18:25:36.183Z,21.60
2022-08-02T18:30:26.370Z,21.00
2022-08-02T18:35:26.218Z,20.90
2022-08-02T18:40:32.796Z,20.90
2022-08-02T18:46:05.645Z,20.80
2022-08-02T18:50:47.007Z,20.90
2022-08-02T18:55:59.622Z,20.70
2022-08-02T19:01:00.429Z,20.60
2022-08-02T19:06:07.596Z,20.40
2022-08-02T19:11:13.047Z,20.20
2022-08-02T19:16:19.740Z,20.10
2022-08-02T19:22:26.521Z,20.00
2022-08-02T19:26:32.143Z,19.80
2022-08-02T19:32:00.244Z,19.80
2022-08-02T19:36:46.815Z,19.80
2022-08-02T19:41:53.056Z,19.70
2022-08-02T19:46:59.879Z,19.50
2022-08-02T19:52:20.582Z,19.30
2022-08-02T19:57:13.813Z,19.40
2022-08-02T20:02:20.667Z,19.20
2022-08-02T20:07:55.275Z,19.30
2022-08-02T20:12:37.308Z,19.20
2022-08-02T20:17:41.217Z,19.20
2022-08-02T20:23:33.641Z,18.90
2022-08-02T20:28:15.028Z,18.60
2022-08-02T20:33:22.462Z,18.70
2022-08-02T20:38:29.906Z,18.90
2022-08-02T20:43:35.919Z,18.70
2022-08-02T20:48:42.129Z,18.70
2022-08-02T20:53:55.232Z,18.80
2022-08-02T20:59:03.703Z,18.50
2022-08-02T21:04:05.164Z,17.90
2022-08-02T21:09:10.594Z,17.90
2022-08-02T21:14:16.743Z,17.90
2022-08-02T21:19:23.556Z,18.00
2022-08-02T21:24:28.931Z,17.80
2022-08-02T21:29:36.414Z,17.80
2022-08-02T21:34:43.358Z,18.00
2022-08-02T21:39:50.762Z,17.60
2022-08-02T21:44:57.972Z,17.40
2022-08-02T21:50:13.439Z,17.20
2022-08-02T21:55:15.041Z,17.00
2022-08-02T22:00:28.453Z,17.00
2022-08-02T22:05:25.592Z,17.10
2022-08-02T22:10:32.374Z,16.80
2022-08-02T22:15:41.090Z,16.90
2022-08-02T22:20:44.956Z,17.00
2022-08-02T22:25:51.629Z,17.00
2022-08-02T22:30:58.142Z,16.50
2022-08-02T22:36:04.687Z,16.80
2022-08-02T22:41:10.214Z,16.60
2022-08-02T22:46:16.700Z,16.80
2022-08-02T22:51:22.161Z,16.60
2022-08-02T22:56:27.410Z,16.70
2022-08-02T23:01:33.482Z,16.30
2022-08-02T23:06:38.702Z,16.50
2022-08-02T23:11:44.161Z,16.40
2022-08-02T23:17:07.518Z,16.40
2022-08-02T23:22:13.846Z,16.30
2022-08-02T23:27:20.361Z,15.90
2022-08-02T23:32:26.356Z,16.40
2022-08-02T23:37:57.837Z,16.00
2022-08-02T23:42:38.071Z,16.20
2022-08-02T23:47:43.264Z,15.90
2022-08-02T23:52:48.617Z,15.90
2022-08-02T23:57:54.075Z,16.20
